Time;durP1;ratioP1;P1;durP2;ratioP2;P2;SDS_P1;SDS_P2;PMS_P1;PMS_P2;Temp;Humidity;BMP_temperature;BMP_pressure;BME280_temperature;BME280_humidity;BME280_pressure;Samples;Min_cycle;Max_cycle;Signal;HPM_P1;HPM_P2
2022/03/13 00:02:02;;;;;;;13.60;9.25;;;-2.20;82.70;;;;;;4990089;28;20034;-57
2022/03/13 00:04:28;;;;;;;14.00;8.63;;;-2.30;83.10;;;;;;4999540;28;20030;-59
2022/03/13 00:06:56;;;;;;;11.07;9.20;;;-2.30;82.70;;;;;;5000593;28;20042;-57
2022/03/13 00:09:22;;;;;;;12.85;8.63;;;-2.30;82.70;;;;;;4995689;28;20500;-58
2022/03/13 00:11:53;;;;;;;12.68;9.48;;;-2.30;82.80;;;;;;5009591;28;20029;-58
2022/03/13 00:14:20;;;;;;;11.15;7.82;;;-2.40;83.00;;;;;;4991349;28;20036;-59
2022/03/13 00:16:48;;;;;;;16.52;10.80;;;-2.50;84.00;;;;;;4990780;28;20041;-56
2022/03/13 00:19:16;;;;;;;11.85;8.35;;;-2.50;85.00;;;;;;5012338;28;20026;-57
2022/03/13 00:21:49;;;;;;;14.05;9.40;;;-2.50;84.60;;;;;;4998616;28;20076;-58
2022/03/13 00:24:15;;;;;;;16.05;11.27;;;-2.60;84.80;;;;;;5005476;28;20034;-59
2022/03/13 00:26:40;;;;;;;12.80;8.95;;;-2.70;87.20;;;;;;4989290;28;20033;-58
2022/03/13 00:29:09;;;;;;;15.95;9.40;;;-2.80;87.90;;;;;;5009707;28;20105;-56
2022/03/13 00:31:35;;;;;;;13.43;9.85;;;-2.90;88.50;;;;;;4986937;28;20597;-56
2022/03/13 00:34:00;;;;;;;15.32;9.35;;;-3.00;89.20;;;;;;4990682;28;20030;-56
2022/03/13 00:36:26;;;;;;;13.00;10.07;;;-3.10;89.50;;;;;;4996677;28;20037;-56
2022/03/13 00:38:51;;;;;;;14.65;10.48;;;-3.10;90.00;;;;;;5008700;28;20473;-59
2022/03/13 00:41:17;;;;;;;17.75;9.25;;;-3.20;90.50;;;;;;4990770;28;20053;-56
2022/03/13 00:43:42;;;;;;;16.20;10.65;;;-3.20;90.70;;;;;;5004511;28;20042;-57
2022/03/13 00:46:08;;;;;;;18.00;9.82;;;-3.30;91.70;;;;;;4998576;28;20030;-56
2022/03/13 00:48:34;;;;;;;10.45;8.48;;;-3.30;92.10;;;;;;4995691;28;20036;-59
2022/03/13 00:51:00;;;;;;;12.70;9.57;;;-3.40;91.90;;;;;;5007217;28;20030;-56
2022/03/13 00:53:25;;;;;;;13.18;8.50;;;-3.40;91.60;;;;;;4989754;28;20101;-57
2022/03/13 00:55:51;;;;;;;12.32;9.38;;;-3.40;91.80;;;;;;4990178;28;20027;-57
2022/03/13 00:58:17;;;;;;;12.40;9.55;;;-3.40;91.70;;;;;;5002361;28;20034;-57
2022/03/13 01:00:43;;;;;;;14.20;8.52;;;-3.40;91.90;;;;;;5009087;28;20034;-57
2022/03/13 01:03:30;;;;;;;13.98;8.82;;;-3.40;91.80;;;;;;5008731;28;20080;-57
2022/03/13 01:05:56;;;;;;;13.98;9.95;;;-3.40;91.80;;;;;;5008854;28;20522;-56
2022/03/13 01:08:22;;;;;;;18.20;9.57;;;-3.40;91.80;;;;;;5009839;28;20088;-57
2022/03/13 01:10:49;;;;;;;12.88;8.82;;;-3.40;92.10;;;;;;5010037;28;20491;-55
2022/03/13 01:13:14;;;;;;;10.40;8.35;;;-3.40;92.10;;;;;;5008328;28;20030;-58
2022/03/13 01:15:48;;;;;;;12.48;9.35;;;-3.40;91.90;;;;;;5007800;28;20107;-56
2022/03/13 01:18:13;;;;;;;11.38;9.25;;;-3.40;92.20;;;;;;5008320;28;20037;-59
2022/03/13 01:20:39;;;;;;;16.83;10.20;;;-3.50;92.60;;;;;;5009193;28;20026;-57
2022/03/13 01:23:07;;;;;;;13.43;9.25;;;-3.50;93.20;;;;;;5009049;28;20103;-57
2022/03/13 01:25:33;;;;;;;17.70;9.35;;;-3.60;93.30;;;;;;5010083;28;20040;-57
2022/03/13 01:27:58;;;;;;;12.15;8.38;;;-3.60;93.60;;;;;;5008054;28;20026;-56
2022/03/13 01:30:24;;;;;;;15.07;9.00;;;-3.60;93.40;;;;;;5009914;28;20526;-57
2022/03/13 01:32:54;;;;;;;10.68;7.43;;;-3.70;93.50;;;;;;5009018;28;20026;-57
2022/03/13 01:35:21;;;;;;;10.00;7.63;;;-3.60;93.30;;;;;;5009848;28;20021;-58
2022/03/13 01:37:47;;;;;;;10.70;8.38;;;-3.60;93.30;;;;;;5008146;28;20485;-56
2022/03/13 01:40:23;;;;;;;18.33;8.60;;;-3.70;93.10;;;;;;5009613;28;20045;-57
2022/03/13 01:42:50;;;;;;;11.52;8.52;;;-3.70;93.10;;;;;;5007841;28;20633;-56
2022/03/13 01:45:18;;;;;;;13.10;8.68;;;-3.80;93.40;;;;;;5008264;28;20052;-57
2022/03/13 01:47:45;;;;;;;12.38;9.38;;;-3.80;94.00;;;;;;5010702;28;20026;-58
2022/03/13 01:50:12;;;;;;;12.25;8.98;;;-3.90;94.30;;;;;;5009122;28;20026;-57
2022/03/13 01:52:40;;;;;;;16.33;8.70;;;-3.90;94.90;;;;;;5007125;28;20509;-59
2022/03/13 01:55:07;;;;;;;13.65;9.20;;;-4.00;95.90;;;;;;5007415;28;20540;-57
2022/03/13 01:57:37;;;;;;;14.07;8.68;;;-4.10;96.60;;;;;;5008850;28;20105;-57
2022/03/13 02:00:06;;;;;;;17.27;8.70;;;-4.20;98.10;;;;;;4999927;28;20026;-58
2022/03/13 02:02:34;;;;;;;12.70;8.23;;;-4.30;99.50;;;;;;5009165;28;20501;-55
2022/03/13 02:05:00;;;;;;;13.27;8.82;;;-4.40;99.90;;;;;;5007657;28;20033;-57
2022/03/13 02:07:28;;;;;;;12.93;10.48;;;-4.40;99.90;;;;;;5023854;28;20054;-55
2022/03/13 02:09:54;;;;;;;13.10;8.73;;;-4.50;99.90;;;;;;5008489;28;20030;-57
2022/03/13 02:12:23;;;;;;;15.23;9.65;;;-4.50;99.90;;;;;;5010334;28;20022;-55
2022/03/13 02:14:49;;;;;;;11.18;8.90;;;-4.50;99.90;;;;;;5011698;28;20033;-56
2022/03/13 02:17:28;;;;;;;13.60;9.32;;;-4.50;99.90;;;;;;5012601;28;20034;-56
2022/03/13 02:19:55;;;;;;;13.50;9.70;;;-4.50;99.90;;;;;;5012484;28;20397;-59
2022/03/13 02:22:21;;;;;;;13.07;9.27;;;-4.60;99.90;;;;;;5012720;28;20041;-55
2022/03/13 02:24:49;;;;;;;12.23;9.60;;;-4.60;99.90;;;;;;5013101;28;20026;-56
2022/03/13 02:27:20;;;;;;;13.02;8.75;;;-4.70;99.90;;;;;;5011687;28;20070;-56
2022/03/13 02:29:46;;;;;;;15.35;9.20;;;-4.70;99.90;;;;;;5012284;28;20068;-57
2022/03/13 02:32:11;;;;;;;11.50;8.20;;;-4.70;99.90;;;;;;5011721;28;20026;-56
2022/03/13 02:34:37;;;;;;;17.92;9.25;;;-4.70;99.90;;;;;;5012448;28;20084;-58
2022/03/13 02:37:04;;;;;;;18.50;9.45;;;-4.80;99.90;;;;;;5003343;28;20061;-58
2022/03/13 02:39:35;;;;;;;12.43;9.10;;;-4.80;99.90;;;;;;5011649;28;20497;-56
2022/03/13 02:42:00;;;;;;;13.23;9.73;;;-4.90;99.90;;;;;;5011259;28;20034;-57
2022/03/13 02:44:26;;;;;;;12.68;9.52;;;-4.90;99.90;;;;;;5011873;28;20030;-59
2022/03/13 02:46:54;;;;;;;12.20;8.32;;;-5.00;99.90;;;;;;5012498;28;20030;-56
2022/03/13 02:49:21;;;;;;;14.93;8.80;;;-5.00;99.90;;;;;;5010445;28;20026;-57
2022/03/13 02:51:50;;;;;;;14.57;9.27;;;-5.10;99.90;;;;;;4995002;28;20504;-55
2022/03/13 02:54:17;;;;;;;13.73;8.60;;;-5.10;99.90;;;;;;5011727;28;20064;-57
2022/03/13 02:56:44;;;;;;;19.13;9.80;;;-5.10;99.90;;;;;;5012767;28;20026;-58
2022/03/13 02:59:12;;;;;;;14.30;9.40;;;-5.10;99.90;;;;;;5010937;28;20516;-55
2022/03/13 03:01:38;;;;;;;12.07;9.13;;;-5.10;99.90;;;;;;5011785;28;20034;-55
2022/03/13 03:04:05;;;;;;;13.73;9.88;;;-5.20;99.90;;;;;;5010341;28;20065;-58
2022/03/13 03:06:32;;;;;;;13.15;8.32;;;-5.20;99.90;;;;;;5026277;28;20378;-57
2022/03/13 03:09:01;;;;;;;12.40;8.77;;;-5.20;99.90;;;;;;5012278;28;20034;-56
2022/03/13 03:11:27;;;;;;;11.60;7.82;;;-5.30;99.90;;;;;;5010814;28;20021;-57
2022/03/13 03:13:52;;;;;;;13.38;8.88;;;-5.30;99.90;;;;;;5011507;28;20080;-55
2022/03/13 03:16:18;;;;;;;10.27;8.13;;;-5.30;99.90;;;;;;5010579;28;20160;-56
2022/03/13 03:18:45;;;;;;;12.23;7.93;;;-5.20;99.90;;;;;;5011622;28;20504;-56
2022/03/13 03:21:13;;;;;;;12.60;7.85;;;-5.20;99.90;;;;;;5009764;28;20468;-58
2022/03/13 03:23:39;;;;;;;11.85;8.00;;;-5.20;99.90;;;;;;5010472;28;20018;-57
2022/03/13 03:26:06;;;;;;;12.18;9.07;;;-5.20;99.90;;;;;;5011590;28;20508;-58
2022/03/13 03:28:34;;;;;;;11.60;7.43;;;-5.20;99.90;;;;;;5010528;28;20651;-56
2022/03/13 03:31:01;;;;;;;15.05;8.05;;;-5.20;99.90;;;;;;5010536;28;20026;-60
2022/03/13 03:33:27;;;;;;;14.88;8.82;;;-5.30;99.90;;;;;;5010425;28;20477;-57
2022/03/13 03:35:53;;;;;;;12.93;8.25;;;-5.30;99.90;;;;;;5011067;28;20026;-57
2022/03/13 03:38:18;;;;;;;10.65;7.90;;;-5.30;99.90;;;;;;5011695;28;20034;-58
2022/03/13 03:40:44;;;;;;;11.63;7.60;;;-5.30;99.90;;;;;;5012187;28;20056;-56
2022/03/13 03:43:10;;;;;;;10.63;7.78;;;-5.30;99.90;;;;;;5009933;28;20030;-56
2022/03/13 03:45:35;;;;;;;9.98;8.25;;;-5.30;99.90;;;;;;5012311;28;20045;-58
2022/03/13 03:48:01;;;;;;;9.68;7.60;;;-5.20;99.90;;;;;;5010528;28;20053;-57
2022/03/13 03:50:27;;;;;;;9.70;7.45;;;-5.10;99.90;;;;;;5010804;28;20011;-58
2022/03/13 03:52:55;;;;;;;11.50;7.22;;;-5.00;99.90;;;;;;5011057;28;20117;-57
2022/03/13 03:55:22;;;;;;;12.52;8.48;;;-5.00;99.90;;;;;;5011564;28;20029;-58
2022/03/13 03:57:48;;;;;;;14.07;8.32;;;-5.00;99.90;;;;;;5011021;28;20030;-56
2022/03/13 04:00:14;;;;;;;11.95;7.72;;;-5.00;99.90;;;;;;5008908;28;20034;-57
2022/03/13 04:02:41;;;;;;;9.75;7.40;;;-5.10;99.90;;;;;;5010976;28;20080;-57
2022/03/13 04:05:08;;;;;;;12.73;8.27;;;-5.20;99.90;;;;;;5008451;28;20044;-56
2022/03/13 04:07:34;;;;;;;12.55;8.38;;;-5.20;99.90;;;;;;5010119;28;20477;-58
2022/03/13 04:09:59;;;;;;;12.27;8.50;;;-5.30;99.90;;;;;;5025479;28;20038;-59
2022/03/13 04:12:28;;;;;;;11.02;7.88;;;-5.30;99.90;;;;;;5009706;28;20084;-56
2022/03/13 04:14:54;;;;;;;16.45;8.30;;;-5.40;99.90;;;;;;5010673;28;20032;-58
2022/03/13 04:17:20;;;;;;;15.60;8.65;;;-5.40;99.90;;;;;;5009744;28;20030;-59
2022/03/13 04:19:46;;;;;;;12.50;8.23;;;-5.40;99.90;;;;;;5009945;28;20049;-59
2022/03/13 04:22:12;;;;;;;13.05;8.70;;;-5.40;99.90;;;;;;5009921;28;20063;-56
2022/03/13 04:24:37;;;;;;;14.35;7.93;;;-5.40;99.90;;;;;;5009002;28;20034;-57
2022/03/13 04:27:03;;;;;;;13.10;8.02;;;-5.40;99.90;;;;;;5007857;28;20022;-56
2022/03/13 04:29:30;;;;;;;10.80;8.05;;;-5.50;99.90;;;;;;5009730;28;20022;-56
2022/03/13 04:31:57;;;;;;;13.05;8.27;;;-5.50;99.90;;;;;;5009297;28;20039;-59
2022/03/13 04:34:22;;;;;;;11.25;8.02;;;-5.50;99.90;;;;;;5007980;28;20026;-58
2022/03/13 04:36:49;;;;;;;12.23;7.72;;;-5.50;99.90;;;;;;5009814;28;20056;-55
2022/03/13 04:39:16;;;;;;;14.52;9.77;;;-5.60;99.90;;;;;;5009361;28;20055;-59
2022/03/13 04:41:42;;;;;;;10.90;8.07;;;-5.60;99.90;;;;;;5024801;28;20069;-57
2022/03/13 04:44:13;;;;;;;14.35;8.57;;;-5.60;99.90;;;;;;5008656;28;20091;-56
2022/03/13 04:46:39;;;;;;;14.07;8.75;;;-5.60;99.90;;;;;;5024165;28;20030;-58
2022/03/13 04:49:05;;;;;;;10.48;7.65;;;-5.50;99.90;;;;;;5009940;28;20033;-57
2022/03/13 04:51:31;;;;;;;15.00;8.05;;;-5.50;99.90;;;;;;5009159;28;20297;-57
2022/03/13 04:53:57;;;;;;;16.75;9.05;;;-5.40;99.90;;;;;;5012130;28;20032;-56
2022/03/13 04:56:22;;;;;;;13.95;7.80;;;-5.50;99.90;;;;;;5009549;28;20030;-55
2022/03/13 04:58:48;;;;;;;11.98;8.35;;;-5.50;99.90;;;;;;5009557;28;20042;-57
2022/03/13 05:01:14;;;;;;;12.18;8.40;;;-5.60;99.90;;;;;;5008437;28;20030;-57
2022/03/13 05:03:39;;;;;;;12.30;8.48;;;-5.70;99.90;;;;;;5009862;28;20440;-59
2022/03/13 05:06:05;;;;;;;11.32;7.57;;;-5.70;99.90;;;;;;5008623;28;20034;-55
2022/03/13 05:08:36;;;;;;;13.82;8.75;;;-5.70;99.90;;;;;;5009920;28;20017;-56
2022/03/13 05:11:05;;;;;;;16.40;7.80;;;-5.70;99.90;;;;;;5008079;28;20123;-56
2022/03/13 05:13:31;;;;;;;10.55;7.45;;;-5.70;99.90;;;;;;5008558;28;20497;-57
2022/03/13 05:15:57;;;;;;;15.25;7.80;;;-5.60;99.90;;;;;;5008255;28;20033;-55
2022/03/13 05:18:23;;;;;;;13.77;7.93;;;-5.60;99.90;;;;;;5008442;28;20548;-57
2022/03/13 05:20:48;;;;;;;11.05;7.40;;;-5.60;99.90;;;;;;5009330;28;20113;-58
2022/03/13 05:23:14;;;;;;;10.57;7.45;;;-5.50;99.90;;;;;;5023148;28;20030;-56
2022/03/13 05:25:41;;;;;;;18.33;7.70;;;-5.40;99.90;;;;;;5008929;28;20049;-56
2022/03/13 05:28:10;;;;;;;11.95;7.28;;;-5.30;99.90;;;;;;5009243;28;20064;-58
2022/03/13 05:30:37;;;;;;;10.35;7.25;;;-5.30;99.90;;;;;;5009853;28;20116;-57
2022/03/13 05:33:04;;;;;;;11.88;7.35;;;-5.20;99.90;;;;;;5007894;28;20634;-56
2022/03/13 05:35:30;;;;;;;13.25;7.50;;;-5.20;99.90;;;;;;5009415;28;20088;-57
2022/03/13 05:37:55;;;;;;;11.32;7.85;;;-5.10;99.90;;;;;;5007769;28;20034;-59
2022/03/13 05:40:22;;;;;;;12.45;7.85;;;-5.10;99.90;;;;;;5008918;28;20064;-58
2022/03/13 05:42:58;;;;;;;10.75;7.63;;;-5.10;99.90;;;;;;5008950;28;20052;-57
2022/03/13 05:45:26;;;;;;;15.85;7.07;;;-5.00;99.90;;;;;;5008257;28;20037;-57
2022/03/13 05:47:58;;;;;;;16.50;7.55;;;-5.00;99.90;;;;;;5011469;28;20048;-55
2022/03/13 05:50:25;;;;;;;;;;;-4.90;99.90;;;;;;5013236;28;20044;-59
2022/03/13 05:52:51;;;;;;;11.35;7.47;;;-4.90;99.90;;;;;;5013341;28;19914;-57
2022/03/13 05:55:18;;;;;;;10.00;6.95;;;-4.90;99.90;;;;;;5012486;28;20037;-56
2022/03/13 05:57:44;;;;;;;9.50;7.32;;;-4.90;99.90;;;;;;5013546;28;20097;-57
2022/03/13 06:00:12;;;;;;;11.55;7.80;;;-4.90;99.90;;;;;;5011652;28;20121;-56
2022/03/13 06:02:40;;;;;;;8.77;7.10;;;-4.90;99.90;;;;;;5011489;28;20049;-57
2022/03/13 06:05:07;;;;;;;13.77;7.93;;;-4.90;99.90;;;;;;5012049;28;20029;-57
2022/03/13 06:07:34;;;;;;;12.93;7.70;;;-4.90;99.90;;;;;;5012662;28;20069;-55
2022/03/13 06:10:03;;;;;;;11.82;8.13;;;-4.80;99.90;;;;;;5011958;28;20036;-57
2022/03/13 06:12:30;;;;;;;17.40;7.45;;;-4.80;99.90;;;;;;5011864;28;20076;-58
2022/03/13 06:14:57;;;;;;;10.98;7.93;;;-4.30;99.90;;;;;;5013192;28;20051;-56
2022/03/13 06:17:23;;;;;;;11.25;7.10;;;-3.30;99.90;;;;;;5012066;28;20040;-58
2022/03/13 06:19:50;;;;;;;8.32;6.55;;;-1.90;99.90;;;;;;5012599;28;20112;-57
2022/03/13 06:22:18;;;;;;;7.32;5.80;;;-0.80;95.50;;;;;;5011206;28;20037;-57
2022/03/13 06:24:43;;;;;;;8.88;6.53;;;0.60;92.70;;;;;;5012212;28;20038;-56
2022/03/13 06:27:10;;;;;;;9.90;7.55;;;1.70;83.80;;;;;;5027603;28;20489;-58
2022/03/13 06:29:37;;;;;;;8.63;6.10;;;2.50;78.80;;;;;;5012828;28;20033;-57
2022/03/13 06:32:03;;;;;;;7.32;5.82;;;3.20;75.60;;;;;;5012637;28;20026;-54
2022/03/13 06:34:28;;;;;;;11.05;7.50;;;4.20;73.90;;;;;;5011897;28;20030;-56
2022/03/13 06:36:54;;;;;;;8.32;6.25;;;5.60;71.50;;;;;;5012870;28;20435;-54
2022/03/13 06:39:20;;;;;;;7.18;6.45;;;6.50;64.10;;;;;;5011652;28;20102;-57
2022/03/13 06:41:45;;;;;;;12.50;6.65;;;6.90;59.10;;;;;;5012719;28;20026;-57
2022/03/13 06:44:12;;;;;;;10.70;6.93;;;7.50;58.40;;;;;;5026484;28;20030;-54
2022/03/13 06:46:37;;;;;;;8.40;6.47;;;8.10;57.30;;;;;;5011960;28;20037;-57
2022/03/13 06:49:05;;;;;;;8.35;6.97;;;8.50;55.40;;;;;;4993990;28;20153;-56
2022/03/13 06:51:31;;;;;;;7.97;6.75;;;8.40;53.70;;;;;;5007285;28;20037;-54
2022/03/13 06:53:58;;;;;;;9.25;6.85;;;8.80;53.00;;;;;;5020985;28;20034;-57
2022/03/13 06:56:24;;;;;;;11.45;6.55;;;8.50;52.60;;;;;;5012041;28;20029;-58
2022/03/13 06:58:49;;;;;;;8.65;6.45;;;8.90;52.80;;;;;;5011580;28;20042;-55
2022/03/13 07:01:15;;;;;;;7.28;6.57;;;9.80;52.90;;;;;;5010930;28;20096;-54
2022/03/13 07:03:42;;;;;;;7.07;6.38;;;10.30;51.10;;;;;;5012683;28;20082;-55
2022/03/13 07:06:07;;;;;;;7.03;5.93;;;10.60;48.50;;;;;;5008655;28;20388;-56
2022/03/13 07:08:33;;;;;;;6.93;5.53;;;11.30;49.80;;;;;;5012679;28;20124;-55
2022/03/13 07:11:02;;;;;;;9.77;6.10;;;12.10;46.60;;;;;;5010679;28;20042;-56
2022/03/13 07:13:32;;;;;;;8.65;7.72;;;12.40;46.00;;;;;;5011162;28;20034;-57
2022/03/13 07:16:03;;;;;;;8.25;7.45;;;13.20;44.80;;;;;;5011610;28;20056;-55
2022/03/13 07:18:31;;;;;;;8.15;7.20;;;13.70;44.40;;;;;;5010977;28;20694;-57
2022/03/13 07:20:57;;;;;;;7.25;6.55;;;13.70;43.10;;;;;;5012627;28;20485;-59
2022/03/13 07:23:24;;;;;;;11.68;7.57;;;14.10;43.80;;;;;;5010935;28;20030;-58
2022/03/13 07:25:50;;;;;;;11.57;7.43;;;14.60;42.70;;;;;;5012565;28;20034;-56
2022/03/13 07:28:16;;;;;;;7.50;6.80;;;15.50;41.00;;;;;;5010654;28;20029;-56
2022/03/13 07:30:42;;;;;;;7.60;6.90;;;15.40;40.80;;;;;;5012043;28;20030;-55
2022/03/13 07:33:08;;;;;;;7.53;6.82;;;15.60;39.60;;;;;;5009745;28;20041;-56
2022/03/13 07:35:33;;;;;;;7.80;6.43;;;16.10;40.40;;;;;;5011499;28;20038;-58
2022/03/13 07:37:59;;;;;;;6.95;6.30;;;16.60;38.10;;;;;;5011568;28;20057;-56
2022/03/13 07:40:25;;;;;;;7.97;6.43;;;16.60;34.70;;;;;;5011033;28;20497;-55
2022/03/13 07:42:50;;;;;;;7.80;6.10;;;16.80;35.10;;;;;;5010509;28;20034;-55
2022/03/13 07:45:16;;;;;;;8.95;6.45;;;17.40;35.50;;;;;;5010062;28;20030;-56
2022/03/13 07:47:42;;;;;;;7.72;6.22;;;17.60;35.60;;;;;;5012125;28;20018;-58
2022/03/13 07:50:08;;;;;;;6.80;6.15;;;17.20;33.40;;;;;;5011057;28;20025;-56
2022/03/13 07:52:34;;;;;;;7.97;6.18;;;16.70;33.40;;;;;;5010544;28;20033;-55
2022/03/13 07:55:00;;;;;;;7.57;6.88;;;16.70;33.20;;;;;;5010473;28;20113;-55
2022/03/13 07:57:26;;;;;;;7.30;6.60;;;15.90;33.50;;;;;;5011465;28;20124;-56
2022/03/13 07:59:52;;;;;;;6.93;6.22;;;16.50;33.30;;;;;;5003908;28;20034;-59
2022/03/13 08:02:18;;;;;;;6.88;6.18;;;17.40;34.10;;;;;;5011085;28;20052;-56
2022/03/13 08:04:43;;;;;;;6.63;6.03;;;17.60;31.50;;;;;;5025742;28;20401;-55
2022/03/13 08:07:09;;;;;;;6.72;6.07;;;18.10;31.20;;;;;;5010341;28;20030;-58
2022/03/13 08:09:35;;;;;;;7.65;5.53;;;18.30;30.60;;;;;;5010407;28;20025;-59
2022/03/13 08:12:02;;;;;;;6.55;5.95;;;19.30;31.90;;;;;;5010244;28;20018;-56
2022/03/13 08:14:28;;;;;;;7.95;6.10;;;19.60;29.20;;;;;;5010002;28;20061;-56
2022/03/13 08:16:53;;;;;;;7.15;6.45;;;19.70;29.10;;;;;;5010292;28;20060;-56
2022/03/13 08:19:19;;;;;;;6.72;6.13;;;20.10;29.00;;;;;;5010687;28;20054;-55
2022/03/13 08:21:44;;;;;;;6.68;6.07;;;20.00;27.90;;;;;;5010205;28;20026;-57
2022/03/13 08:24:10;;;;;;;7.30;5.68;;;20.30;27.10;;;;;;5010745;28;20507;-56
2022/03/13 08:26:38;;;;;;;7.05;6.38;;;21.00;28.30;;;;;;5010971;28;20018;-54
2022/03/13 08:29:05;;;;;;;7.35;6.03;;;21.40;28.30;;;;;;5009214;28;20129;-54
2022/03/13 08:31:32;;;;;;;6.03;5.53;;;21.90;26.60;;;;;;5010034;28;20413;-56
2022/03/13 08:33:58;;;;;;;6.32;5.72;;;22.00;25.80;;;;;;5010090;28;20056;-55
2022/03/13 08:36:24;;;;;;;6.15;5.55;;;22.50;26.80;;;;;;5009429;28;20488;-55
2022/03/13 08:38:50;;;;;;;6.38;5.78;;;22.70;26.30;;;;;;5009736;28;20013;-55
2022/03/13 08:41:15;;;;;;;6.60;6.00;;;23.10;26.20;;;;;;5010608;28;20030;-54
2022/03/13 08:43:41;;;;;;;5.75;5.25;;;23.00;24.90;;;;;;5008846;28;20058;-55
2022/03/13 08:46:06;;;;;;;6.18;5.57;;;23.20;25.00;;;;;;5010812;28;20112;-55
2022/03/13 08:48:34;;;;;;;5.80;5.20;;;23.30;25.60;;;;;;5009427;28;20053;-55
2022/03/13 08:51:00;;;;;;;6.72;6.13;;;23.50;25.20;;;;;;5009422;28;20030;-56
2022/03/13 08:53:25;;;;;;;5.57;5.15;;;23.20;23.90;;;;;;4993648;28;20096;-55
2022/03/13 08:55:51;;;;;;;6.55;5.95;;;22.70;24.10;;;;;;5008582;28;20069;-54
2022/03/13 08:58:17;;;;;;;6.80;6.20;;;22.50;24.80;;;;;;5008805;28;20041;-55
2022/03/13 09:00:43;;;;;;;5.80;5.30;;;21.10;25.10;;;;;;5009114;28;20052;-55
2022/03/13 09:03:09;;;;;;;6.93;6.28;;;20.80;25.40;;;;;;5009765;28;20068;-54
2022/03/13 09:05:34;;;;;;;6.80;6.07;;;20.40;27.00;;;;;;5011604;28;20060;-55
2022/03/13 09:08:00;;;;;;;6.25;5.30;;;19.80;25.90;;;;;;5008740;28;20034;-56
2022/03/13 09:10:26;;;;;;;6.93;6.22;;;20.00;27.10;;;;;;5009511;28;20362;-55
2022/03/13 09:12:51;;;;;;;7.22;6.13;;;19.70;26.50;;;;;;5008309;28;20503;-55
2022/03/13 09:15:17;;;;;;;7.03;5.97;;;19.90;26.60;;;;;;5009059;28;20028;-56
2022/03/13 09:17:43;;;;;;;7.00;6.22;;;19.60;26.40;;;;;;5009995;28;20097;-56
2022/03/13 09:20:09;;;;;;;9.98;5.97;;;19.90;26.20;;;;;;5009989;28;20500;-55
2022/03/13 09:22:35;;;;;;;6.38;5.78;;;20.30;26.10;;;;;;5008562;28;20041;-57
2022/03/13 09:25:02;;;;;;;5.90;5.40;;;20.10;25.20;;;;;;5008913;28;20026;-55
2022/03/13 09:27:29;;;;;;;6.03;5.07;;;19.60;26.20;;;;;;5008896;28;20432;-54
2022/03/13 09:29:57;;;;;;;6.57;5.97;;;19.80;25.40;;;;;;5008554;28;20032;-55
2022/03/13 09:32:23;;;;;;;6.90;6.07;;;19.10;26.10;;;;;;5009574;28;20025;-55
2022/03/13 09:34:49;;;;;;;5.93;5.43;;;18.70;26.00;;;;;;5008570;28;20117;-54
2022/03/13 09:37:16;;;;;;;6.45;5.85;;;18.40;26.90;;;;;;5008978;28;20447;-54
2022/03/13 09:39:42;;;;;;;6.80;6.10;;;18.20;27.30;;;;;;5008547;28;20041;-54
2022/03/13 09:42:10;;;;;;;7.93;5.78;;;17.80;27.60;;;;;;5008114;28;20385;-55
2022/03/13 09:44:36;;;;;;;7.28;6.60;;;17.20;27.80;;;;;;5011357;28;20033;-55
2022/03/13 09:47:02;;;;;;;6.32;5.72;;;17.60;27.70;;;;;;5008207;28;20034;-54
2022/03/13 09:49:28;;;;;;;7.00;6.38;;;19.10;27.20;;;;;;5002531;28;20497;-56
2022/03/13 09:51:54;;;;;;;5.95;5.40;;;19.30;26.40;;;;;;5006928;28;20032;-55
2022/03/13 09:54:20;;;;;;;6.18;5.68;;;19.60;26.30;;;;;;5008190;28;20022;-54
2022/03/13 09:56:46;;;;;;;6.75;6.07;;;18.30;26.30;;;;;;5010522;28;20057;-55
2022/03/13 09:59:11;;;;;;;6.68;6.03;;;17.40;27.70;;;;;;5008389;28;20073;-56
2022/03/13 10:01:37;;;;;;;12.30;6.63;;;17.70;28.90;;;;;;5008455;28;20061;-55
2022/03/13 10:04:04;;;;;;;6.88;6.15;;;17.50;27.80;;;;;;5009517;28;20108;-55
2022/03/13 10:06:30;;;;;;;7.03;6.43;;;17.20;28.30;;;;;;5008465;28;20069;-55
2022/03/13 10:08:55;;;;;;;6.28;5.43;;;17.20;28.00;;;;;;5008469;28;20053;-54
2022/03/13 10:11:32;;;;;;;9.73;6.72;;;17.30;28.50;;;;;;5009207;28;20046;-54
2022/03/13 10:14:06;;;;;;;6.28;5.45;;;17.60;28.60;;;;;;5008952;28;20393;-54
2022/03/13 10:16:39;;;;;;;6.60;6.00;;;16.90;28.20;;;;;;5006421;28;20418;-55
2022/03/13 10:19:16;;;;;;;9.55;6.68;;;16.70;28.60;;;;;;5000276;28;20117;-56
2022/03/13 10:22:02;;;;;;;6.72;6.10;;;17.00;29.90;;;;;;5006911;28;20076;-54
2022/03/13 10:24:28;;;;;;;6.60;6.00;;;16.80;28.40;;;;;;5007751;28;20026;-56
2022/03/13 10:27:16;;;;;;;6.53;5.93;;;16.70;29.00;;;;;;5007510;28;20396;-56
2022/03/13 10:29:42;;;;;;;7.35;5.85;;;16.50;28.60;;;;;;5008865;28;20022;-55
2022/03/13 10:32:09;;;;;;;6.65;6.05;;;16.50;30.20;;;;;;5008547;28;20311;-55
2022/03/13 10:34:36;;;;;;;7.15;6.28;;;16.40;30.80;;;;;;5011326;28;20034;-56
2022/03/13 10:37:02;;;;;;;6.75;6.15;;;15.90;30.00;;;;;;5011738;28;20529;-55
2022/03/13 10:39:29;;;;;;;7.40;6.38;;;16.00;30.40;;;;;;4994972;28;20033;-55
2022/03/13 10:42:02;;;;;;;6.32;5.82;;;15.50;29.80;;;;;;5011518;28;20031;-55
2022/03/13 10:44:31;;;;;;;8.63;6.07;;;15.70;30.60;;;;;;5010699;28;20799;-55
2022/03/13 10:47:08;;;;;;;10.23;6.70;;;16.20;29.70;;;;;;4994539;28;20106;-54
2022/03/13 10:49:44;;;;;;;6.30;5.60;;;16.80;29.80;;;;;;5026536;28;20555;-56
2022/03/13 10:52:29;;;;;;;7.03;6.35;;;16.70;29.70;;;;;;5011429;28;20029;-55
2022/03/13 10:54:57;;;;;;;6.50;5.90;;;15.90;29.60;;;;;;5010516;28;20053;-55
2022/03/13 10:57:23;;;;;;;7.53;6.78;;;15.10;30.90;;;;;;5011545;28;20069;-54
2022/03/13 11:00:15;;;;;;;7.68;6.70;;;15.10;30.90;;;;;;5011547;28;20018;-55
2022/03/13 11:02:41;;;;;;;7.38;6.68;;;15.70;32.00;;;;;;5012845;28;20102;-55
2022/03/13 11:05:08;;;;;;;8.95;6.03;;;16.30;31.90;;;;;;5012900;28;20038;-54
2022/03/13 11:07:34;;;;;;;6.93;5.85;;;15.80;30.30;;;;;;5011044;28;20042;-54
2022/03/13 11:10:00;;;;;;;6.60;5.97;;;16.10;31.50;;;;;;5011199;28;20089;-55
2022/03/13 11:12:26;;;;;;;7.93;5.95;;;16.20;31.00;;;;;;5010947;28;20030;-54
2022/03/13 11:14:58;;;;;;;6.10;5.53;;;15.80;30.10;;;;;;5011092;28;20024;-56
2022/03/13 11:17:27;;;;;;;7.30;6.05;;;15.70;31.30;;;;;;5011131;28;20045;-53
2022/03/13 11:20:01;;;;;;;6.85;6.15;;;15.70;31.60;;;;;;5010996;28;20026;-55
2022/03/13 11:22:28;;;;;;;7.07;6.07;;;15.40;30.40;;;;;;5010963;28;20374;-55
2022/03/13 11:24:59;;;;;;;6.80;5.53;;;15.20;30.10;;;;;;5010651;28;20030;-56
2022/03/13 11:27:26;;;;;;;6.13;5.47;;;15.20;32.90;;;;;;5011245;28;20034;-55
2022/03/13 11:29:53;;;;;;;7.13;6.43;;;15.50;30.00;;;;;;5010325;28;20049;-56
2022/03/13 11:32:40;;;;;;;6.63;6.03;;;15.20;30.70;;;;;;5010462;28;20030;-55
2022/03/13 11:35:12;;;;;;;12.05;6.75;;;14.80;31.30;;;;;;5010361;28;20045;-55
2022/03/13 11:38:02;;;;;;;8.25;5.95;;;14.80;32.30;;;;;;5010096;28;20056;-54
2022/03/13 11:40:38;;;;;;;6.90;6.20;;;14.60;31.80;;;;;;5006817;28;20034;-55
2022/03/13 11:43:07;;;;;;;6.97;6.30;;;14.70;31.70;;;;;;5008503;28;20096;-56
2022/03/13 11:45:34;;;;;;;8.32;5.57;;;14.40;32.40;;;;;;5010148;28;20117;-56
2022/03/13 11:48:05;;;;;;;7.13;6.43;;;14.10;33.50;;;;;;5010147;28;20104;-55
2022/03/13 11:50:52;;;;;;;;;;;13.80;32.40;;;;;;5011685;28;20110;-56
2022/03/13 11:53:20;;;;;;;8.55;7.07;;;14.10;34.00;;;;;;5009494;28;19959;-55
2022/03/13 11:56:02;;;;;;;7.50;6.70;;;14.80;31.30;;;;;;5010024;28;20026;-55
2022/03/13 11:58:48;;;;;;;7.28;6.57;;;14.50;31.90;;;;;;5009805;28;20046;-56
2022/03/13 12:01:31;;;;;;;5.80;5.25;;;14.10;32.60;;;;;;5003409;28;20045;-53
2022/03/13 12:04:03;;;;;;;6.65;5.97;;;14.20;33.40;;;;;;5009348;28;20072;-54
2022/03/13 12:06:41;;;;;;;8.55;6.28;;;14.20;32.30;;;;;;5010680;28;20038;-55
2022/03/13 12:09:07;;;;;;;7.35;5.82;;;14.20;33.10;;;;;;5001959;28;20485;-55
2022/03/13 12:11:43;;;;;;;6.97;6.28;;;14.50;33.20;;;;;;5010366;28;20053;-55
2022/03/13 12:14:11;;;;;;;7.10;5.78;;;14.60;33.00;;;;;;5002379;28;20042;-54
2022/03/13 12:16:39;;;;;;;6.47;5.88;;;15.00;34.10;;;;;;5010081;28;20093;-54
2022/03/13 12:19:07;;;;;;;6.10;5.60;;;15.10;33.00;;;;;;5010497;28;20500;-56
2022/03/13 12:21:32;;;;;;;6.68;6.07;;;14.70;32.40;;;;;;5008181;28;20026;-58
2022/03/13 12:24:15;;;;;;;6.65;6.00;;;15.00;32.90;;;;;;5009868;28;20112;-55
2022/03/13 12:26:42;;;;;;;7.90;6.15;;;15.20;32.30;;;;;;5009336;28;20089;-58
2022/03/13 12:29:11;;;;;;;7.18;6.40;;;14.90;31.80;;;;;;5009817;28;20021;-56
2022/03/13 12:31:56;;;;;;;7.03;5.47;;;15.10;34.60;;;;;;5009251;28;20049;-59
2022/03/13 12:34:29;;;;;;;6.18;5.57;;;15.30;31.70;;;;;;5004175;28;20045;-58
2022/03/13 12:36:58;;;;;;;7.47;5.95;;;15.30;33.10;;;;;;5009165;28;20029;-55
2022/03/13 12:39:23;;;;;;;6.20;5.60;;;15.30;30.60;;;;;;5009020;28;20033;-56
2022/03/13 12:42:04;;;;;;;7.35;5.80;;;15.20;31.60;;;;;;5009738;28;20030;-55
2022/03/13 12:44:31;;;;;;;6.40;5.80;;;14.70;31.50;;;;;;5009637;28;20038;-57
2022/03/13 12:46:57;;;;;;;6.38;5.43;;;14.60;35.30;;;;;;5009588;28;20455;-57